• Join FlightAware (Why Join?)
  • Login
  • US Flag 
05:10AM EDT


 

Airport Tracker/Info


-or-


 

Live Flight TrackerFlight Track Log ✈ CHH7207 ✈ 19-Jul-2013 ✈ ZBTJ / TSN - ZSPD / PVG

Flight Track Log - Related Links

Times and Time Zones

All times are in EDT time to prevent confusion due to time zone crossing. See the CHH7207 flight status page for this flight to view local times or setup timezone preferences in your user account.

Time Position Orientation Groundspeed Altitude Reporting Facility
EDT Latitude Longitude Course Direction KTS MPH feet Rate Location/Type
10:41AM 39.0455 117.3953 154° Southeast  Level Estimated
10:42AM 38.9666 117.4443 154° Southeast  Level Estimated
10:43AM 38.8876 117.4932 154° Southeast  Level Estimated
10:44AM 38.8087 117.5420 154° Southeast  Level Estimated
10:45AM 38.7297 117.5906 154° Southeast  Level Estimated
10:46AM 38.6507 117.6392 154° Southeast  Level Estimated
10:47AM 38.5717 117.6877 154° Southeast  Level Estimated
10:48AM 38.4927 117.7360 154° Southeast  Level Estimated
10:49AM 38.4136 117.7842 154° Southeast  Level Estimated
10:50AM 38.3346 117.8324 154° Southeast  Level Estimated
10:51AM 38.2555 117.8804 155° Southeast  Level Estimated
10:52AM 38.1764 117.9283 155° Southeast  Level Estimated
10:53AM 38.0972 117.9762 155° Southeast  Level Estimated
10:54AM 38.0181 118.0239 155° Southeast  Level Estimated
10:55AM 37.9389 118.0715 155° Southeast  Level Estimated
10:56AM 37.8597 118.1190 155° Southeast  Level Estimated
10:57AM 37.7805 118.1664 155° Southeast  Level Estimated
10:58AM 37.7013 118.2137 155° Southeast  Level Estimated
10:59AM 37.6142 118.2656 155° Southeast  Level Estimated
11:00AM 37.5271 118.3174 155° Southeast  Level Estimated
11:01AM 37.4400 118.3690 155° Southeast  Level Estimated
11:02AM 37.3528 118.4205 155° Southeast  Level Estimated
11:03AM 37.2657 118.4719 155° Southeast  Level Estimated
11:04AM 37.1785 118.5232 155° Southeast  Level Estimated
11:05AM 37.0913 118.5743 155° Southeast  Level Estimated
11:06AM 37.0040 118.6254 155° Southeast  Level Estimated
11:07AM 36.9168 118.6763 155° Southeast  Level Estimated
11:08AM 36.8295 118.7271 155° Southeast  Level Estimated
11:09AM 36.7422 118.7778 155° Southeast  Level Estimated
11:10AM 36.6549 118.8283 155° Southeast  Level Estimated
11:11AM 36.5675 118.8788 155° Southeast  Level Estimated
11:12AM 36.4802 118.9292 155° Southeast  Level Estimated
11:13AM 36.3928 118.9794 155° Southeast  Level Estimated
11:14AM 36.3054 119.0295 155° Southeast  Level Estimated
11:15AM 36.2179 119.0795 155° Southeast  Level Estimated
11:16AM 36.1305 119.1294 155° Southeast  Level Estimated
11:17AM 36.0430 119.1792 155° Southeast  Level Estimated
11:18AM 35.9555 119.2289 155° Southeast  Level Estimated
11:19AM 35.8680 119.2784 155° Southeast  Level Estimated
11:20AM 35.7805 119.3279 155° Southeast  Level Estimated
11:21AM 35.6929 119.3772 155° Southeast  Level Estimated
11:22AM 35.6054 119.4265 155° Southeast  Level Estimated
11:23AM 35.5178 119.4756 155° Southeast  Level Estimated
11:24AM 35.4302 119.5246 155° Southeast  Level Estimated
11:25AM 35.3425 119.5735 156° South  Level Estimated
11:26AM 35.2549 119.6223 156° South  Level Estimated
11:27AM 35.1672 119.6710 156° South  Level Estimated
11:28AM 35.0795 119.7196 156° South  Level Estimated
11:29AM 34.9918 119.7681 156° South  Level Estimated
11:30AM 34.9041 119.8165 156° South  Level Estimated
11:31AM 34.8163 119.8648 156° South  Level Estimated
11:32AM 34.7286 119.9130 156° South  Level Estimated
11:33AM 34.6408 119.9611 156° South  Level Estimated
11:34AM 34.5530 120.0091 156° South  Level Estimated
11:35AM 34.4651 120.0570 156° South  Level Estimated
11:36AM 34.3773 120.1047 156° South  Level Estimated
11:37AM 34.2895 120.1524 156° South  Level Estimated
11:38AM 34.2016 120.2000 156° South  Level Estimated
11:39AM 34.1137 120.2475 156° South  Level Estimated
11:40AM 34.0257 120.2949 156° South  Level Estimated
11:41AM 33.9378 120.3421 156° South  Level Estimated
11:42AM 33.8499 120.3893 156° South  Level Estimated
11:43AM 33.7619 120.4364 156° South  Level Estimated
11:44AM 33.6739 120.4834 156° South  Level Estimated
11:45AM 33.5859 120.5303 156° South  Level Estimated
11:46AM 33.4979 120.5771 156° South  Level Estimated
11:47AM 33.4099 120.6238 156° South  Level Estimated
11:48AM 33.3218 120.6704 156° South  Level Estimated
11:49AM 33.2337 120.7169 156° South  Level Estimated
11:50AM 33.1456 120.7634 156° South  Level Estimated
11:51AM 33.0575 120.8097 156° South  Level Estimated
11:52AM 32.9694 120.8559 156° South  Level Estimated
11:53AM 32.8812 120.9021 156° South  Level Estimated
11:54AM 32.7931 120.9481 156° South  Level Estimated
11:55AM 32.7049 120.9941 156° South  Level Estimated
11:56AM 32.6167 121.0400 156° South  Level Estimated
11:57AM 32.5285 121.0857 156° South  Level Estimated
11:58AM 32.4403 121.1314 156° South  Level Estimated
11:59AM 32.3520 121.1770 156° South  Level Estimated
12:00PM 32.2638 121.2225 156° South  Level Estimated
12:01PM 32.1755 121.2680 156° South  Level Estimated
12:02PM 32.0872 121.3133 156° South  Level Estimated
12:03PM 31.9989 121.3586 157° South  Level Estimated
12:04PM 31.9106 121.4037 157° South  Level Estimated
12:05PM 31.8222 121.4488 157° South  Level Estimated
12:06PM 31.7339 121.4938 157° South  Level Estimated
12:07PM 31.6455 121.5387 157° South  Level Estimated
12:08PM 31.5571 121.5835 157° South  Level Estimated
12:09PM 31.4687 121.6282 157° South  Level Estimated
12:10PM 31.3803 121.6729 157° South  Level Estimated
12:11PM 31.2919 121.7175 157° South  Level Estimated
12:12PM 31.2034 121.7619 157° South  Level Estimated
12:13PM 31.1428 121.7924 157° South  Level Estimated
12:14PM 31.1428 121.7924 221° Southwest  Level Estimated
12:15PM 31.1428 121.7924 221° Southwest  Level Estimated
12:16PM 31.1428 121.7924 221° Southwest  Level Estimated
12:17PM 31.1428 121.7924 221° Southwest  Level Estimated